Terminal Aerodrome Forecast
Issued by NWS

Home | Current Version | Previous Version | Text Only | Print | Product List | Glossary On
Versions: 1 2 3 4 5 6 7 8 9 10 11 12 13 14 15 16 17 18 19 20 21 22
000
FTUS43 KSGF 281900 AAA
TAFBBG
TAF AMD
KBBG 281943Z 2820/2918 18011G20KT P6SM SCT250
     FM290000 16012KT P6SM SCT250 WS020/21045KT
     FM290600 22010KT P6SM SCT250 WS020/27040KT
     FM291200 30010KT P6SM SKC
     FM291600 31010G18KT P6SM SCT050 BKN250=

USA.gov is the U.S. government's official web portal to all federal, state and local government web resources and services.